sensor_id;sensor_type;location;lat;lon;timestamp;temperature;humidity
6142;DHT22;71289;51.552;6.210;2023-12-22T00:01:25;6.20;99.90
6142;DHT22;71289;51.552;6.210;2023-12-22T00:03:51;6.20;99.90
6142;DHT22;71289;51.552;6.210;2023-12-22T00:06:17;6.20;99.90
6142;DHT22;71289;51.552;6.210;2023-12-22T00:08:42;6.20;99.90
6142;DHT22;71289;51.552;6.210;2023-12-22T00:11:08;6.20;99.90
6142;DHT22;71289;51.552;6.210;2023-12-22T00:13:33;6.30;99.90
6142;DHT22;71289;51.552;6.210;2023-12-22T00:16:00;6.20;99.90
6142;DHT22;71289;51.552;6.210;2023-12-22T00:18:28;6.20;99.90
6142;DHT22;71289;51.552;6.210;2023-12-22T00:20:54;6.20;99.90
6142;DHT22;71289;51.552;6.210;2023-12-22T00:23:19;6.30;99.90
6142;DHT22;71289;51.552;6.210;2023-12-22T00:25:44;6.30;99.90
6142;DHT22;71289;51.552;6.210;2023-12-22T00:28:10;6.40;99.90
6142;DHT22;71289;51.552;6.210;2023-12-22T00:30:36;6.40;99.90
6142;DHT22;71289;51.552;6.210;2023-12-22T00:33:01;6.40;99.90
6142;DHT22;71289;51.552;6.210;2023-12-22T00:35:27;6.40;99.90
6142;DHT22;71289;51.552;6.210;2023-12-22T00:37:53;6.40;99.90
6142;DHT22;71289;51.552;6.210;2023-12-22T00:40:19;6.50;99.90
6142;DHT22;71289;51.552;6.210;2023-12-22T00:42:44;6.50;99.90
6142;DHT22;71289;51.552;6.210;2023-12-22T00:45:10;6.50;99.90
6142;DHT22;71289;51.552;6.210;2023-12-22T00:47:36;6.50;99.90
6142;DHT22;71289;51.552;6.210;2023-12-22T00:50:02;6.50;99.90
6142;DHT22;71289;51.552;6.210;2023-12-22T00:52:28;6.60;99.90
6142;DHT22;71289;51.552;6.210;2023-12-22T00:54:53;6.50;99.90
6142;DHT22;71289;51.552;6.210;2023-12-22T00:57:19;6.50;99.90
6142;DHT22;71289;51.552;6.210;2023-12-22T00:59:44;6.50;99.90
6142;DHT22;71289;51.552;6.210;2023-12-22T01:02:16;6.50;99.90
6142;DHT22;71289;51.552;6.210;2023-12-22T01:04:41;6.50;99.90
6142;DHT22;71289;51.552;6.210;2023-12-22T01:07:08;6.50;99.90
6142;DHT22;71289;51.552;6.210;2023-12-22T01:09:34;6.50;99.90
6142;DHT22;71289;51.552;6.210;2023-12-22T01:11:59;6.50;99.90
6142;DHT22;71289;51.552;6.210;2023-12-22T01:14:28;6.50;99.90
6142;DHT22;71289;51.552;6.210;2023-12-22T01:16:53;6.60;99.90
6142;DHT22;71289;51.552;6.210;2023-12-22T01:19:19;6.60;99.90
6142;DHT22;71289;51.552;6.210;2023-12-22T01:21:44;6.60;99.90
6142;DHT22;71289;51.552;6.210;2023-12-22T01:24:10;6.60;99.90
6142;DHT22;71289;51.552;6.210;2023-12-22T01:26:35;6.60;99.90
6142;DHT22;71289;51.552;6.210;2023-12-22T01:29:01;6.60;99.90
6142;DHT22;71289;51.552;6.210;2023-12-22T01:31:26;6.60;99.90
6142;DHT22;71289;51.552;6.210;2023-12-22T01:33:52;6.60;99.90
6142;DHT22;71289;51.552;6.210;2023-12-22T01:36:18;6.60;99.90
6142;DHT22;71289;51.552;6.210;2023-12-22T01:38:43;6.70;99.90
6142;DHT22;71289;51.552;6.210;2023-12-22T01:41:09;6.60;99.90
6142;DHT22;71289;51.552;6.210;2023-12-22T01:43:34;6.50;99.90
6142;DHT22;71289;51.552;6.210;2023-12-22T01:46:00;6.50;99.90
6142;DHT22;71289;51.552;6.210;2023-12-22T01:48:28;6.30;99.90
6142;DHT22;71289;51.552;6.210;2023-12-22T01:50:55;6.10;99.90
6142;DHT22;71289;51.552;6.210;2023-12-22T01:53:21;6.00;99.90
6142;DHT22;71289;51.552;6.210;2023-12-22T01:55:50;5.90;99.90
6142;DHT22;71289;51.552;6.210;2023-12-22T01:58:22;5.80;99.90
6142;DHT22;71289;51.552;6.210;2023-12-22T02:00:48;5.80;99.90
6142;DHT22;71289;51.552;6.210;2023-12-22T02:03:14;5.70;99.90
6142;DHT22;71289;51.552;6.210;2023-12-22T02:05:41;5.70;99.90
6142;DHT22;71289;51.552;6.210;2023-12-22T02:08:07;5.70;99.90
6142;DHT22;71289;51.552;6.210;2023-12-22T02:10:33;5.80;99.90
6142;DHT22;71289;51.552;6.210;2023-12-22T02:12:58;5.80;99.90
6142;DHT22;71289;51.552;6.210;2023-12-22T02:15:24;5.90;99.90
6142;DHT22;71289;51.552;6.210;2023-12-22T02:18:09;5.90;99.90
6142;DHT22;71289;51.552;6.210;2023-12-22T02:20:36;5.90;99.90
6142;DHT22;71289;51.552;6.210;2023-12-22T02:23:02;5.90;99.90
6142;DHT22;71289;51.552;6.210;2023-12-22T02:25:27;5.90;99.90
6142;DHT22;71289;51.552;6.210;2023-12-22T02:27:53;5.90;99.90
6142;DHT22;71289;51.552;6.210;2023-12-22T02:30:39;6.00;99.90
6142;DHT22;71289;51.552;6.210;2023-12-22T02:33:08;6.00;99.90
6142;DHT22;71289;51.552;6.210;2023-12-22T02:35:36;6.00;99.90
6142;DHT22;71289;51.552;6.210;2023-12-22T02:38:04;6.00;99.90
6142;DHT22;71289;51.552;6.210;2023-12-22T02:40:31;6.10;99.90
6142;DHT22;71289;51.552;6.210;2023-12-22T02:42:56;6.10;99.90
6142;DHT22;71289;51.552;6.210;2023-12-22T02:45:22;6.10;99.90
6142;DHT22;71289;51.552;6.210;2023-12-22T02:47:48;6.20;99.90
6142;DHT22;71289;51.552;6.210;2023-12-22T02:50:15;6.20;99.90
6142;DHT22;71289;51.552;6.210;2023-12-22T02:52:41;6.20;99.90
6142;DHT22;71289;51.552;6.210;2023-12-22T02:55:07;6.20;99.90
6142;DHT22;71289;51.552;6.210;2023-12-22T02:57:32;6.20;99.90
6142;DHT22;71289;51.552;6.210;2023-12-22T02:59:58;6.20;99.90
6142;DHT22;71289;51.552;6.210;2023-12-22T03:02:24;6.20;99.90
6142;DHT22;71289;51.552;6.210;2023-12-22T03:04:50;6.10;99.90
6142;DHT22;71289;51.552;6.210;2023-12-22T03:07:15;6.10;99.90
6142;DHT22;71289;51.552;6.210;2023-12-22T03:09:42;6.10;99.90
6142;DHT22;71289;51.552;6.210;2023-12-22T03:12:08;6.10;99.90
6142;DHT22;71289;51.552;6.210;2023-12-22T03:14:34;6.10;99.90
6142;DHT22;71289;51.552;6.210;2023-12-22T03:17:03;6.10;99.90
6142;DHT22;71289;51.552;6.210;2023-12-22T03:19:29;6.00;99.90
6142;DHT22;71289;51.552;6.210;2023-12-22T03:21:55;6.00;99.90
6142;DHT22;71289;51.552;6.210;2023-12-22T03:24:22;5.90;99.90
6142;DHT22;71289;51.552;6.210;2023-12-22T03:26:49;5.80;99.90
6142;DHT22;71289;51.552;6.210;2023-12-22T03:29:15;5.70;99.90
6142;DHT22;71289;51.552;6.210;2023-12-22T03:31:40;5.60;99.90
6142;DHT22;71289;51.552;6.210;2023-12-22T03:34:06;5.70;99.90
6142;DHT22;71289;51.552;6.210;2023-12-22T03:36:32;5.70;99.90
6142;DHT22;71289;51.552;6.210;2023-12-22T03:38:58;5.70;99.90
6142;DHT22;71289;51.552;6.210;2023-12-22T03:41:23;5.60;99.90
6142;DHT22;71289;51.552;6.210;2023-12-22T03:43:49;5.60;99.90
6142;DHT22;71289;51.552;6.210;2023-12-22T03:46:15;5.50;99.90
6142;DHT22;71289;51.552;6.210;2023-12-22T03:48:40;5.60;99.90
6142;DHT22;71289;51.552;6.210;2023-12-22T03:51:06;5.70;99.90
6142;DHT22;71289;51.552;6.210;2023-12-22T03:53:31;5.70;99.90
6142;DHT22;71289;51.552;6.210;2023-12-22T03:55:57;5.70;99.90
6142;DHT22;71289;51.552;6.210;2023-12-22T03:58:22;5.80;99.90
6142;DHT22;71289;51.552;6.210;2023-12-22T04:00:48;5.80;99.90
6142;DHT22;71289;51.552;6.210;2023-12-22T04:03:14;5.90;99.90
6142;DHT22;71289;51.552;6.210;2023-12-22T04:05:39;5.90;99.90
6142;DHT22;71289;51.552;6.210;2023-12-22T04:08:05;5.90;99.90
6142;DHT22;71289;51.552;6.210;2023-12-22T04:10:31;5.90;99.90
6142;DHT22;71289;51.552;6.210;2023-12-22T04:12:57;6.00;99.90
6142;DHT22;71289;51.552;6.210;2023-12-22T04:15:22;6.00;99.90
6142;DHT22;71289;51.552;6.210;2023-12-22T04:17:48;6.10;99.90
6142;DHT22;71289;51.552;6.210;2023-12-22T04:20:14;6.10;99.90
6142;DHT22;71289;51.552;6.210;2023-12-22T04:22:40;6.20;99.90
6142;DHT22;71289;51.552;6.210;2023-12-22T04:25:06;6.20;99.90
6142;DHT22;71289;51.552;6.210;2023-12-22T04:27:31;6.30;99.90
6142;DHT22;71289;51.552;6.210;2023-12-22T04:29:57;6.30;99.90
6142;DHT22;71289;51.552;6.210;2023-12-22T04:32:22;6.30;99.90
6142;DHT22;71289;51.552;6.210;2023-12-22T04:34:48;6.40;99.90
6142;DHT22;71289;51.552;6.210;2023-12-22T04:37:13;6.40;99.90
6142;DHT22;71289;51.552;6.210;2023-12-22T04:39:39;6.40;99.90
6142;DHT22;71289;51.552;6.210;2023-12-22T04:42:05;6.50;99.90
6142;DHT22;71289;51.552;6.210;2023-12-22T04:44:31;6.50;99.90
6142;DHT22;71289;51.552;6.210;2023-12-22T04:46:56;6.60;99.90
6142;DHT22;71289;51.552;6.210;2023-12-22T04:49:22;6.70;99.90
6142;DHT22;71289;51.552;6.210;2023-12-22T04:51:47;6.70;99.90
6142;DHT22;71289;51.552;6.210;2023-12-22T04:54:13;6.70;99.90
6142;DHT22;71289;51.552;6.210;2023-12-22T04:56:38;6.70;99.90
6142;DHT22;71289;51.552;6.210;2023-12-22T04:59:04;6.80;99.90
6142;DHT22;71289;51.552;6.210;2023-12-22T05:01:29;6.70;99.90
6142;DHT22;71289;51.552;6.210;2023-12-22T05:03:55;6.70;99.90
6142;DHT22;71289;51.552;6.210;2023-12-22T05:06:20;6.80;99.90
6142;DHT22;71289;51.552;6.210;2023-12-22T05:08:46;6.80;99.90
6142;DHT22;71289;51.552;6.210;2023-12-22T05:11:12;6.90;99.90
6142;DHT22;71289;51.552;6.210;2023-12-22T05:13:38;6.90;99.90
6142;DHT22;71289;51.552;6.210;2023-12-22T05:16:03;6.90;99.90
6142;DHT22;71289;51.552;6.210;2023-12-22T05:18:30;6.70;99.90
6142;DHT22;71289;51.552;6.210;2023-12-22T05:20:55;6.70;99.90
6142;DHT22;71289;51.552;6.210;2023-12-22T05:23:21;6.70;99.90
6142;DHT22;71289;51.552;6.210;2023-12-22T05:25:47;6.70;99.90
6142;DHT22;71289;51.552;6.210;2023-12-22T05:28:13;6.70;99.90
6142;DHT22;71289;51.552;6.210;2023-12-22T05:30:38;6.70;99.90
6142;DHT22;71289;51.552;6.210;2023-12-22T05:33:04;6.80;99.90
6142;DHT22;71289;51.552;6.210;2023-12-22T05:35:29;7.10;99.90
6142;DHT22;71289;51.552;6.210;2023-12-22T05:37:55;6.80;99.90
6142;DHT22;71289;51.552;6.210;2023-12-22T05:40:20;6.80;99.90
6142;DHT22;71289;51.552;6.210;2023-12-22T05:42:46;6.90;99.90
6142;DHT22;71289;51.552;6.210;2023-12-22T05:45:13;6.90;99.90
6142;DHT22;71289;51.552;6.210;2023-12-22T05:47:39;6.90;99.90
6142;DHT22;71289;51.552;6.210;2023-12-22T05:50:05;6.90;99.90
6142;DHT22;71289;51.552;6.210;2023-12-22T05:52:30;6.90;99.90
6142;DHT22;71289;51.552;6.210;2023-12-22T05:54:56;6.90;99.90
6142;DHT22;71289;51.552;6.210;2023-12-22T05:57:21;6.90;99.90
6142;DHT22;71289;51.552;6.210;2023-12-22T05:59:47;6.90;99.90
6142;DHT22;71289;51.552;6.210;2023-12-22T06:02:12;7.00;99.90
6142;DHT22;71289;51.552;6.210;2023-12-22T06:04:38;7.00;99.90
6142;DHT22;71289;51.552;6.210;2023-12-22T06:07:04;7.00;99.90
6142;DHT22;71289;51.552;6.210;2023-12-22T06:09:30;7.00;99.90
6142;DHT22;71289;51.552;6.210;2023-12-22T06:11:55;7.00;99.90
6142;DHT22;71289;51.552;6.210;2023-12-22T06:14:21;7.00;99.90
6142;DHT22;71289;51.552;6.210;2023-12-22T06:16:47;7.00;99.90
6142;DHT22;71289;51.552;6.210;2023-12-22T06:19:12;7.00;99.90
6142;DHT22;71289;51.552;6.210;2023-12-22T06:21:38;7.10;99.90
6142;DHT22;71289;51.552;6.210;2023-12-22T06:24:04;7.10;99.90
6142;DHT22;71289;51.552;6.210;2023-12-22T06:26:30;7.10;99.90
6142;DHT22;71289;51.552;6.210;2023-12-22T06:28:56;7.10;99.90
6142;DHT22;71289;51.552;6.210;2023-12-22T06:31:21;7.10;99.90
6142;DHT22;71289;51.552;6.210;2023-12-22T06:33:48;7.10;99.90
6142;DHT22;71289;51.552;6.210;2023-12-22T06:36:21;7.20;99.90
6142;DHT22;71289;51.552;6.210;2023-12-22T06:38:50;7.20;99.90
6142;DHT22;71289;51.552;6.210;2023-12-22T06:41:24;7.20;99.90
6142;DHT22;71289;51.552;6.210;2023-12-22T06:43:50;7.20;99.90
6142;DHT22;71289;51.552;6.210;2023-12-22T06:46:23;7.30;99.90
6142;DHT22;71289;51.552;6.210;2023-12-22T06:48:51;7.30;99.90
6142;DHT22;71289;51.552;6.210;2023-12-22T06:51:24;7.40;99.90
6142;DHT22;71289;51.552;6.210;2023-12-22T06:53:51;7.40;99.90
6142;DHT22;71289;51.552;6.210;2023-12-22T06:56:22;7.40;99.90
6142;DHT22;71289;51.552;6.210;2023-12-22T06:58:49;7.50;99.90
6142;DHT22;71289;51.552;6.210;2023-12-22T07:01:22;7.50;99.90
6142;DHT22;71289;51.552;6.210;2023-12-22T07:03:49;7.50;99.90
6142;DHT22;71289;51.552;6.210;2023-12-22T07:06:15;7.50;99.90
6142;DHT22;71289;51.552;6.210;2023-12-22T07:08:42;7.50;99.90
6142;DHT22;71289;51.552;6.210;2023-12-22T07:11:08;7.50;99.90
6142;DHT22;71289;51.552;6.210;2023-12-22T07:13:34;7.50;99.90
6142;DHT22;71289;51.552;6.210;2023-12-22T07:15:59;7.50;99.90
6142;DHT22;71289;51.552;6.210;2023-12-22T07:18:27;7.50;99.90
6142;DHT22;71289;51.552;6.210;2023-12-22T07:20:59;7.50;99.90
6142;DHT22;71289;51.552;6.210;2023-12-22T07:23:24;7.50;99.90
6142;DHT22;71289;51.552;6.210;2023-12-22T07:25:50;7.50;99.90
6142;DHT22;71289;51.552;6.210;2023-12-22T07:28:16;7.50;99.90
6142;DHT22;71289;51.552;6.210;2023-12-22T07:30:42;7.50;99.90
6142;DHT22;71289;51.552;6.210;2023-12-22T07:33:07;7.60;99.90
6142;DHT22;71289;51.552;6.210;2023-12-22T07:35:33;7.60;99.90
6142;DHT22;71289;51.552;6.210;2023-12-22T07:37:59;7.80;99.90
6142;DHT22;71289;51.552;6.210;2023-12-22T07:40:25;7.60;99.90
6142;DHT22;71289;51.552;6.210;2023-12-22T07:42:50;7.70;99.90
6142;DHT22;71289;51.552;6.210;2023-12-22T07:45:17;7.70;99.90
6142;DHT22;71289;51.552;6.210;2023-12-22T07:47:42;7.70;99.90
6142;DHT22;71289;51.552;6.210;2023-12-22T07:50:08;7.80;99.90
6142;DHT22;71289;51.552;6.210;2023-12-22T07:52:35;7.80;99.90
6142;DHT22;71289;51.552;6.210;2023-12-22T07:55:08;7.90;99.90
6142;DHT22;71289;51.552;6.210;2023-12-22T07:57:36;7.80;99.90
6142;DHT22;71289;51.552;6.210;2023-12-22T08:00:02;7.90;99.90
6142;DHT22;71289;51.552;6.210;2023-12-22T08:02:28;7.90;99.90
6142;DHT22;71289;51.552;6.210;2023-12-22T08:04:54;7.90;99.90
6142;DHT22;71289;51.552;6.210;2023-12-22T08:07:19;8.00;99.90
6142;DHT22;71289;51.552;6.210;2023-12-22T08:09:45;8.00;99.90
6142;DHT22;71289;51.552;6.210;2023-12-22T08:12:10;8.00;99.90
6142;DHT22;71289;51.552;6.210;2023-12-22T08:14:36;8.00;99.90
6142;DHT22;71289;51.552;6.210;2023-12-22T08:17:01;8.00;99.90
6142;DHT22;71289;51.552;6.210;2023-12-22T08:19:27;8.00;99.90
6142;DHT22;71289;51.552;6.210;2023-12-22T08:21:53;8.10;99.90
6142;DHT22;71289;51.552;6.210;2023-12-22T08:24:20;8.10;99.90
6142;DHT22;71289;51.552;6.210;2023-12-22T08:26:45;8.10;99.90
6142;DHT22;71289;51.552;6.210;2023-12-22T08:29:11;8.20;99.90
6142;DHT22;71289;51.552;6.210;2023-12-22T08:31:36;8.20;99.90
6142;DHT22;71289;51.552;6.210;2023-12-22T08:34:02;8.20;99.90
6142;DHT22;71289;51.552;6.210;2023-12-22T08:36:27;8.30;99.90
6142;DHT22;71289;51.552;6.210;2023-12-22T08:38:53;8.30;99.90
6142;DHT22;71289;51.552;6.210;2023-12-22T08:41:18;8.30;99.90
6142;DHT22;71289;51.552;6.210;2023-12-22T08:43:44;8.30;99.90
6142;DHT22;71289;51.552;6.210;2023-12-22T08:46:09;8.30;99.90
6142;DHT22;71289;51.552;6.210;2023-12-22T08:48:35;8.40;99.90
6142;DHT22;71289;51.552;6.210;2023-12-22T08:51:01;8.40;99.90
6142;DHT22;71289;51.552;6.210;2023-12-22T08:53:27;8.40;99.90
6142;DHT22;71289;51.552;6.210;2023-12-22T08:55:55;8.40;99.90
6142;DHT22;71289;51.552;6.210;2023-12-22T08:58:21;8.50;99.90
6142;DHT22;71289;51.552;6.210;2023-12-22T09:00:47;8.40;99.90
6142;DHT22;71289;51.552;6.210;2023-12-22T09:03:13;8.50;99.90
6142;DHT22;71289;51.552;6.210;2023-12-22T09:05:38;8.50;99.90
6142;DHT22;71289;51.552;6.210;2023-12-22T09:08:05;8.50;99.90
6142;DHT22;71289;51.552;6.210;2023-12-22T09:10:31;8.50;99.90
6142;DHT22;71289;51.552;6.210;2023-12-22T09:12:57;8.50;99.90
6142;DHT22;71289;51.552;6.210;2023-12-22T09:15:23;8.50;99.90
6142;DHT22;71289;51.552;6.210;2023-12-22T09:17:49;8.50;99.90
6142;DHT22;71289;51.552;6.210;2023-12-22T09:20:15;8.50;99.90
6142;DHT22;71289;51.552;6.210;2023-12-22T09:22:40;8.50;99.90
6142;DHT22;71289;51.552;6.210;2023-12-22T09:25:06;8.60;99.90
6142;DHT22;71289;51.552;6.210;2023-12-22T09:27:34;8.60;99.90
6142;DHT22;71289;51.552;6.210;2023-12-22T09:29:59;8.60;99.90
6142;DHT22;71289;51.552;6.210;2023-12-22T09:32:25;8.60;99.90
6142;DHT22;71289;51.552;6.210;2023-12-22T09:34:52;8.60;99.90
6142;DHT22;71289;51.552;6.210;2023-12-22T09:37:17;8.70;99.90
6142;DHT22;71289;51.552;6.210;2023-12-22T09:39:43;8.70;99.90
6142;DHT22;71289;51.552;6.210;2023-12-22T09:42:08;8.80;99.90
6142;DHT22;71289;51.552;6.210;2023-12-22T09:44:36;8.80;99.90
6142;DHT22;71289;51.552;6.210;2023-12-22T09:47:04;8.80;99.90
6142;DHT22;71289;51.552;6.210;2023-12-22T09:49:33;8.90;99.90
6142;DHT22;71289;51.552;6.210;2023-12-22T09:51:59;8.90;99.90
6142;DHT22;71289;51.552;6.210;2023-12-22T09:54:26;9.00;99.90
6142;DHT22;71289;51.552;6.210;2023-12-22T09:56:52;9.00;99.90
6142;DHT22;71289;51.552;6.210;2023-12-22T09:59:19;9.00;99.90
6142;DHT22;71289;51.552;6.210;2023-12-22T10:01:47;9.10;99.90
6142;DHT22;71289;51.552;6.210;2023-12-22T10:04:14;9.10;99.90
6142;DHT22;71289;51.552;6.210;2023-12-22T10:06:41;9.10;99.90
6142;DHT22;71289;51.552;6.210;2023-12-22T10:09:07;9.10;99.90
6142;DHT22;71289;51.552;6.210;2023-12-22T10:11:35;9.10;99.90
6142;DHT22;71289;51.552;6.210;2023-12-22T10:14:02;9.10;99.90
6142;DHT22;71289;51.552;6.210;2023-12-22T10:16:28;9.10;99.90
6142;DHT22;71289;51.552;6.210;2023-12-22T10:18:53;9.10;99.90
6142;DHT22;71289;51.552;6.210;2023-12-22T10:21:19;9.10;99.90
6142;DHT22;71289;51.552;6.210;2023-12-22T10:23:44;9.10;99.90
6142;DHT22;71289;51.552;6.210;2023-12-22T10:26:13;9.10;99.90
6142;DHT22;71289;51.552;6.210;2023-12-22T10:28:38;9.10;99.90
6142;DHT22;71289;51.552;6.210;2023-12-22T10:31:06;9.20;99.90
6142;DHT22;71289;51.552;6.210;2023-12-22T10:33:33;9.20;99.90
6142;DHT22;71289;51.552;6.210;2023-12-22T10:36:02;9.20;99.90
6142;DHT22;71289;51.552;6.210;2023-12-22T10:38:32;9.30;99.90
6142;DHT22;71289;51.552;6.210;2023-12-22T10:41:00;9.30;99.90
6142;DHT22;71289;51.552;6.210;2023-12-22T10:43:26;9.30;99.90
6142;DHT22;71289;51.552;6.210;2023-12-22T10:45:52;9.40;99.90
6142;DHT22;71289;51.552;6.210;2023-12-22T10:48:18;9.40;99.90
6142;DHT22;71289;51.552;6.210;2023-12-22T10:50:44;9.40;99.90
6142;DHT22;71289;51.552;6.210;2023-12-22T10:53:11;9.50;99.90
6142;DHT22;71289;51.552;6.210;2023-12-22T10:55:37;9.50;99.90
6142;DHT22;71289;51.552;6.210;2023-12-22T10:58:03;9.60;99.90
6142;DHT22;71289;51.552;6.210;2023-12-22T11:00:29;9.60;99.90
6142;DHT22;71289;51.552;6.210;2023-12-22T11:03:01;9.60;99.90
6142;DHT22;71289;51.552;6.210;2023-12-22T11:05:28;9.60;99.90
6142;DHT22;71289;51.552;6.210;2023-12-22T11:07:54;9.70;99.90
6142;DHT22;71289;51.552;6.210;2023-12-22T11:10:20;9.70;99.90
6142;DHT22;71289;51.552;6.210;2023-12-22T11:12:47;9.70;99.90
6142;DHT22;71289;51.552;6.210;2023-12-22T11:15:13;9.70;99.90
6142;DHT22;71289;51.552;6.210;2023-12-22T11:17:39;9.80;99.90
6142;DHT22;71289;51.552;6.210;2023-12-22T11:20:09;9.80;99.90
6142;DHT22;71289;51.552;6.210;2023-12-22T11:22:36;9.80;99.90
6142;DHT22;71289;51.552;6.210;2023-12-22T11:25:02;9.90;99.90
6142;DHT22;71289;51.552;6.210;2023-12-22T11:27:29;9.90;99.90
6142;DHT22;71289;51.552;6.210;2023-12-22T11:29:55;9.90;99.90
6142;DHT22;71289;51.552;6.210;2023-12-22T11:32:20;9.90;99.90
6142;DHT22;71289;51.552;6.210;2023-12-22T11:34:47;9.90;99.90
6142;DHT22;71289;51.552;6.210;2023-12-22T11:37:14;9.90;99.90
6142;DHT22;71289;51.552;6.210;2023-12-22T11:39:41;9.90;99.90
6142;DHT22;71289;51.552;6.210;2023-12-22T11:42:13;9.90;99.90
6142;DHT22;71289;51.552;6.210;2023-12-22T11:44:39;10.00;99.90
6142;DHT22;71289;51.552;6.210;2023-12-22T11:47:07;10.00;99.90
6142;DHT22;71289;51.552;6.210;2023-12-22T11:49:36;10.00;99.90
6142;DHT22;71289;51.552;6.210;2023-12-22T11:52:15;10.00;99.90
6142;DHT22;71289;51.552;6.210;2023-12-22T11:54:54;10.00;99.90
6142;DHT22;71289;51.552;6.210;2023-12-22T11:57:36;10.10;99.90
6142;DHT22;71289;51.552;6.210;2023-12-22T12:00:05;10.10;99.90
6142;DHT22;71289;51.552;6.210;2023-12-22T12:02:35;10.10;99.90
6142;DHT22;71289;51.552;6.210;2023-12-22T12:05:01;10.10;99.90
6142;DHT22;71289;51.552;6.210;2023-12-22T12:07:46;10.10;99.90
6142;DHT22;71289;51.552;6.210;2023-12-22T12:10:51;10.20;99.90
6142;DHT22;71289;51.552;6.210;2023-12-22T12:13:22;10.20;99.90
6142;DHT22;71289;51.552;6.210;2023-12-22T12:15:50;10.10;99.90
6142;DHT22;71289;51.552;6.210;2023-12-22T12:18:21;10.10;99.90
6142;DHT22;71289;51.552;6.210;2023-12-22T12:20:48;10.10;99.90
6142;DHT22;71289;51.552;6.210;2023-12-22T12:23:15;10.10;99.90
6142;DHT22;71289;51.552;6.210;2023-12-22T12:25:40;10.10;99.90
6142;DHT22;71289;51.552;6.210;2023-12-22T12:28:08;10.10;99.90
6142;DHT22;71289;51.552;6.210;2023-12-22T12:30:36;10.10;99.90
6142;DHT22;71289;51.552;6.210;2023-12-22T12:33:12;10.10;99.90
6142;DHT22;71289;51.552;6.210;2023-12-22T12:35:39;10.10;99.90
6142;DHT22;71289;51.552;6.210;2023-12-22T12:38:04;10.10;99.90
6142;DHT22;71289;51.552;6.210;2023-12-22T12:40:31;10.10;99.90
6142;DHT22;71289;51.552;6.210;2023-12-22T12:43:01;10.10;99.90
6142;DHT22;71289;51.552;6.210;2023-12-22T12:45:27;10.10;99.90
6142;DHT22;71289;51.552;6.210;2023-12-22T12:48:00;10.20;99.90
6142;DHT22;71289;51.552;6.210;2023-12-22T12:50:27;10.20;99.90
6142;DHT22;71289;51.552;6.210;2023-12-22T12:53:00;10.20;99.90
6142;DHT22;71289;51.552;6.210;2023-12-22T12:55:26;10.20;99.90
6142;DHT22;71289;51.552;6.210;2023-12-22T12:57:52;10.20;99.90
6142;DHT22;71289;51.552;6.210;2023-12-22T13:00:28;10.10;99.90
6142;DHT22;71289;51.552;6.210;2023-12-22T13:02:55;10.10;99.90
6142;DHT22;71289;51.552;6.210;2023-12-22T13:05:24;10.20;99.90
6142;DHT22;71289;51.552;6.210;2023-12-22T13:07:50;10.30;99.90
6142;DHT22;71289;51.552;6.210;2023-12-22T13:10:34;10.10;99.90
6142;DHT22;71289;51.552;6.210;2023-12-22T13:12:59;10.10;99.90
6142;DHT22;71289;51.552;6.210;2023-12-22T13:15:25;10.10;99.90
6142;DHT22;71289;51.552;6.210;2023-12-22T13:17:50;10.10;99.90
6142;DHT22;71289;51.552;6.210;2023-12-22T13:20:16;10.10;99.90
6142;DHT22;71289;51.552;6.210;2023-12-22T13:22:43;10.00;99.90
6142;DHT22;71289;51.552;6.210;2023-12-22T13:25:09;10.00;99.90
6142;DHT22;71289;51.552;6.210;2023-12-22T13:27:48;10.10;99.90
6142;DHT22;71289;51.552;6.210;2023-12-22T13:30:35;10.10;99.90
6142;DHT22;71289;51.552;6.210;2023-12-22T13:33:02;10.10;99.90
6142;DHT22;71289;51.552;6.210;2023-12-22T13:35:28;10.10;99.90
6142;DHT22;71289;51.552;6.210;2023-12-22T13:37:54;10.30;99.90
6142;DHT22;71289;51.552;6.210;2023-12-22T13:40:20;10.10;99.90
6142;DHT22;71289;51.552;6.210;2023-12-22T13:42:56;10.20;99.90
6142;DHT22;71289;51.552;6.210;2023-12-22T13:45:27;10.20;99.90
6142;DHT22;71289;51.552;6.210;2023-12-22T13:47:53;10.20;99.90
6142;DHT22;71289;51.552;6.210;2023-12-22T13:50:19;10.20;99.90
6142;DHT22;71289;51.552;6.210;2023-12-22T13:52:48;10.20;99.90
6142;DHT22;71289;51.552;6.210;2023-12-22T13:55:15;10.20;99.90
6142;DHT22;71289;51.552;6.210;2023-12-22T13:57:42;10.20;99.90
6142;DHT22;71289;51.552;6.210;2023-12-22T14:02:45;10.20;99.90
6142;DHT22;71289;51.552;6.210;2023-12-22T14:05:11;10.20;99.90
6142;DHT22;71289;51.552;6.210;2023-12-22T14:07:37;10.20;99.90
6142;DHT22;71289;51.552;6.210;2023-12-22T14:10:06;10.30;99.90
6142;DHT22;71289;51.552;6.210;2023-12-22T14:12:31;10.20;99.90
6142;DHT22;71289;51.552;6.210;2023-12-22T14:14:57;10.20;99.90
6142;DHT22;71289;51.552;6.210;2023-12-22T14:17:22;10.20;99.90
6142;DHT22;71289;51.552;6.210;2023-12-22T14:19:48;10.20;99.90
6142;DHT22;71289;51.552;6.210;2023-12-22T14:22:17;10.10;99.90
6142;DHT22;71289;51.552;6.210;2023-12-22T14:24:42;10.10;99.90
6142;DHT22;71289;51.552;6.210;2023-12-22T14:27:08;10.10;99.90
6142;DHT22;71289;51.552;6.210;2023-12-22T14:29:34;10.10;99.90
6142;DHT22;71289;51.552;6.210;2023-12-22T14:32:02;10.10;99.90
6142;DHT22;71289;51.552;6.210;2023-12-22T14:34:27;10.20;99.90
6142;DHT22;71289;51.552;6.210;2023-12-22T14:36:53;10.20;99.90
6142;DHT22;71289;51.552;6.210;2023-12-22T14:39:18;10.10;99.90
6142;DHT22;71289;51.552;6.210;2023-12-22T14:41:44;10.40;99.90
6142;DHT22;71289;51.552;6.210;2023-12-22T14:44:09;10.10;99.90
6142;DHT22;71289;51.552;6.210;2023-12-22T14:46:39;10.00;99.90
6142;DHT22;71289;51.552;6.210;2023-12-22T14:49:05;10.00;99.90
6142;DHT22;71289;51.552;6.210;2023-12-22T14:51:35;10.00;99.90
6142;DHT22;71289;51.552;6.210;2023-12-22T14:54:01;10.00;99.90
6142;DHT22;71289;51.552;6.210;2023-12-22T14:56:27;10.00;99.90
6142;DHT22;71289;51.552;6.210;2023-12-22T14:58:52;9.90;99.90
6142;DHT22;71289;51.552;6.210;2023-12-22T15:01:18;9.90;99.90
6142;DHT22;71289;51.552;6.210;2023-12-22T15:03:43;10.00;99.90
6142;DHT22;71289;51.552;6.210;2023-12-22T15:06:09;10.00;99.90
6142;DHT22;71289;51.552;6.210;2023-12-22T15:08:34;10.00;99.90
6142;DHT22;71289;51.552;6.210;2023-12-22T15:11:00;10.00;99.90
6142;DHT22;71289;51.552;6.210;2023-12-22T15:13:26;10.00;99.90
6142;DHT22;71289;51.552;6.210;2023-12-22T15:15:52;10.00;99.90
6142;DHT22;71289;51.552;6.210;2023-12-22T15:18:17;10.00;99.90
6142;DHT22;71289;51.552;6.210;2023-12-22T15:20:43;10.00;99.90
6142;DHT22;71289;51.552;6.210;2023-12-22T15:23:08;10.00;99.90
6142;DHT22;71289;51.552;6.210;2023-12-22T15:25:34;10.00;99.90
6142;DHT22;71289;51.552;6.210;2023-12-22T15:28:00;10.00;99.90
6142;DHT22;71289;51.552;6.210;2023-12-22T15:30:25;10.00;99.90
6142;DHT22;71289;51.552;6.210;2023-12-22T15:32:53;9.90;99.90
6142;DHT22;71289;51.552;6.210;2023-12-22T15:35:18;9.90;99.90
6142;DHT22;71289;51.552;6.210;2023-12-22T15:37:45;9.90;99.90
6142;DHT22;71289;51.552;6.210;2023-12-22T15:40:10;10.00;99.90
6142;DHT22;71289;51.552;6.210;2023-12-22T15:42:36;10.00;99.90
6142;DHT22;71289;51.552;6.210;2023-12-22T15:45:02;10.00;99.90
6142;DHT22;71289;51.552;6.210;2023-12-22T15:47:29;10.00;99.90
6142;DHT22;71289;51.552;6.210;2023-12-22T15:49:54;9.90;99.90
6142;DHT22;71289;51.552;6.210;2023-12-22T15:52:20;9.90;99.90
6142;DHT22;71289;51.552;6.210;2023-12-22T15:54:45;9.80;99.90
6142;DHT22;71289;51.552;6.210;2023-12-22T15:57:11;9.80;99.90